createdAt,value
2019-03-19T00:01:58.399Z,2.70
2019-03-19T00:04:27.727Z,2.60
2019-03-19T00:06:57.036Z,2.50
2019-03-19T00:09:26.293Z,2.40
2019-03-19T00:11:57.793Z,2.40
2019-03-19T00:14:26.607Z,2.30
2019-03-19T00:16:55.923Z,2.30
2019-03-19T00:19:25.194Z,2.20
2019-03-19T00:21:54.484Z,2.30
2019-03-19T00:24:23.759Z,2.30
2019-03-19T00:26:53.051Z,2.50
2019-03-19T00:29:22.327Z,2.50
2019-03-19T00:31:51.684Z,2.50
2019-03-19T00:34:20.949Z,2.50
2019-03-19T00:36:50.243Z,2.50
2019-03-19T00:39:19.526Z,2.70
2019-03-19T00:41:48.885Z,2.70
2019-03-19T00:44:18.710Z,2.70
2019-03-19T00:46:48.079Z,2.60
2019-03-19T00:49:17.349Z,2.50
2019-03-19T00:51:46.630Z,2.50
2019-03-19T00:54:15.900Z,2.50
2019-03-19T00:56:45.192Z,2.50
2019-03-19T00:59:14.470Z,2.30
2019-03-19T01:01:43.771Z,2.20
2019-03-19T01:04:13.024Z,2.10
2019-03-19T01:06:42.308Z,2.00
2019-03-19T01:09:11.568Z,2.00
2019-03-19T01:11:40.854Z,2.00
2019-03-19T01:14:10.145Z,1.90
2019-03-19T01:16:39.435Z,2.00
2019-03-19T01:19:08.710Z,2.10
2019-03-19T01:21:37.991Z,2.10
2019-03-19T01:24:07.261Z,2.00
2019-03-19T01:26:36.548Z,1.90
2019-03-19T01:29:05.824Z,1.90
2019-03-19T01:31:35.121Z,1.90
2019-03-19T01:34:04.394Z,2.00
2019-03-19T01:36:33.695Z,2.00
2019-03-19T01:39:03.174Z,1.90
2019-03-19T01:41:32.464Z,1.80
2019-03-19T01:44:01.724Z,1.80
2019-03-19T01:46:31.032Z,1.70
2019-03-19T01:49:00.323Z,1.70
2019-03-19T01:51:29.734Z,1.70
2019-03-19T01:53:59.062Z,1.60
2019-03-19T01:56:28.351Z,1.50
2019-03-19T01:58:57.626Z,1.60
2019-03-19T02:01:26.916Z,1.60
2019-03-19T02:03:56.196Z,1.60
2019-03-19T02:06:25.496Z,1.70
2019-03-19T02:08:54.762Z,1.70
2019-03-19T02:11:24.316Z,1.60
2019-03-19T02:13:53.588Z,1.60
2019-03-19T02:16:22.887Z,1.40
2019-03-19T02:18:52.229Z,1.40
2019-03-19T02:21:21.541Z,1.50
2019-03-19T02:23:50.821Z,1.50
2019-03-19T02:26:20.116Z,1.60
2019-03-19T02:28:49.395Z,1.50
2019-03-19T02:31:18.688Z,1.50
2019-03-19T02:33:48.120Z,1.50
2019-03-19T02:36:17.425Z,1.40
2019-03-19T02:38:46.749Z,1.30
2019-03-19T02:41:18.102Z,1.20
2019-03-19T02:43:47.416Z,1.10
2019-03-19T02:46:16.691Z,1.10
2019-03-19T02:48:45.978Z,1.10
2019-03-19T02:51:15.260Z,1.10
2019-03-19T02:53:44.529Z,1.20
2019-03-19T02:56:13.822Z,1.10
2019-03-19T02:58:43.094Z,1.20
2019-03-19T03:01:12.362Z,1.20
2019-03-19T03:03:41.712Z,1.20
2019-03-19T03:06:10.994Z,1.10
2019-03-19T03:08:40.245Z,1.10
2019-03-19T03:11:09.552Z,1.10
2019-03-19T03:13:38.910Z,1.20
2019-03-19T03:16:08.267Z,1.30
2019-03-19T03:18:37.530Z,1.30
2019-03-19T03:21:06.813Z,1.30
2019-03-19T03:23:36.093Z,1.30
2019-03-19T03:26:05.397Z,1.30
2019-03-19T03:28:34.652Z,1.30
2019-03-19T03:31:03.967Z,1.20
2019-03-19T03:33:33.218Z,1.20
2019-03-19T03:36:02.514Z,1.20
2019-03-19T03:38:31.792Z,1.20
2019-03-19T03:41:01.362Z,1.30
2019-03-19T03:43:30.665Z,1.30
2019-03-19T03:46:00.005Z,1.30
2019-03-19T03:48:29.289Z,1.20
2019-03-19T03:50:58.577Z,1.20
2019-03-19T03:53:28.009Z,1.10
2019-03-19T03:55:57.290Z,1.20
2019-03-19T03:58:26.576Z,1.10
2019-03-19T04:00:55.947Z,1.10
2019-03-19T04:03:25.229Z,1.00
2019-03-19T04:05:54.512Z,1.00
2019-03-19T04:08:23.791Z,1.10
2019-03-19T04:10:53.066Z,1.10
2019-03-19T04:13:22.420Z,1.20
2019-03-19T04:15:51.760Z,1.20
2019-03-19T04:18:21.042Z,1.20
2019-03-19T04:20:50.376Z,1.20
2019-03-19T04:23:19.665Z,1.20
2019-03-19T04:25:48.986Z,1.10
2019-03-19T04:28:18.260Z,1.00
2019-03-19T04:30:47.532Z,1.00
2019-03-19T04:33:16.805Z,1.00
2019-03-19T04:35:46.062Z,1.00
2019-03-19T04:38:15.344Z,1.00
2019-03-19T04:40:44.624Z,0.90
2019-03-19T04:43:13.928Z,0.80
2019-03-19T04:45:43.221Z,0.80
2019-03-19T04:48:12.511Z,0.70
2019-03-19T04:50:41.765Z,0.70
2019-03-19T04:53:11.044Z,0.60
2019-03-19T04:55:40.316Z,0.60
2019-03-19T04:58:09.660Z,0.70
2019-03-19T05:00:38.929Z,0.80
2019-03-19T05:03:08.222Z,1.00
2019-03-19T05:05:37.598Z,0.90
2019-03-19T05:08:06.950Z,0.90
2019-03-19T05:10:36.240Z,0.90
2019-03-19T05:13:05.530Z,0.90
2019-03-19T05:15:34.809Z,0.80
2019-03-19T05:18:04.102Z,0.70
2019-03-19T05:20:33.464Z,0.60
2019-03-19T05:23:02.728Z,0.60
2019-03-19T05:25:32.007Z,0.60
2019-03-19T05:28:01.269Z,0.70
2019-03-19T05:30:30.555Z,0.80
2019-03-19T05:32:59.816Z,0.70
2019-03-19T05:35:29.110Z,0.80
2019-03-19T05:37:58.369Z,0.90
2019-03-19T05:40:27.654Z,0.90
2019-03-19T05:42:56.904Z,0.90
2019-03-19T05:45:26.202Z,0.90
2019-03-19T05:47:55.507Z,0.90
2019-03-19T05:50:24.847Z,1.00
2019-03-19T05:52:54.134Z,1.00
2019-03-19T05:55:23.392Z,1.00
2019-03-19T05:57:52.697Z,1.20
2019-03-19T06:00:22.905Z,1.40
2019-03-19T06:02:52.186Z,1.40
2019-03-19T06:05:21.628Z,1.50
2019-03-19T06:07:51.023Z,1.60
2019-03-19T06:10:20.288Z,1.90
2019-03-19T06:12:49.594Z,2.40
2019-03-19T06:15:19.036Z,2.90
2019-03-19T06:17:48.323Z,3.50
2019-03-19T06:20:17.626Z,4.20
2019-03-19T06:22:46.909Z,4.70
2019-03-19T06:25:16.188Z,6.10
2019-03-19T06:27:45.578Z,6.90
2019-03-19T06:30:16.633Z,8.10
2019-03-19T06:32:46.182Z,8.90
2019-03-19T06:35:15.467Z,10.50
2019-03-19T06:37:44.798Z,10.40
2019-03-19T06:40:14.662Z,10.40
2019-03-19T06:42:43.956Z,11.00
2019-03-19T06:45:14.142Z,10.90
2019-03-19T06:47:43.415Z,11.10
2019-03-19T06:50:13.204Z,11.50
2019-03-19T06:52:42.596Z,11.30
2019-03-19T06:55:12.796Z,10.50
2019-03-19T06:57:42.096Z,10.90
2019-03-19T07:00:14.864Z,11.50
2019-03-19T07:02:44.165Z,11.20
2019-03-19T07:05:13.795Z,11.10
2019-03-19T07:07:43.066Z,11.50
2019-03-19T07:10:12.915Z,11.50
2019-03-19T07:12:42.205Z,11.90
2019-03-19T07:15:13.030Z,12.40
2019-03-19T07:17:42.328Z,12.70
2019-03-19T07:20:13.291Z,13.30
2019-03-19T07:22:42.729Z,14.00
2019-03-19T07:25:12.133Z,14.00
2019-03-19T07:27:41.433Z,14.00
2019-03-19T07:30:13.891Z,13.30
2019-03-19T07:32:43.163Z,13.00
2019-03-19T07:35:12.457Z,11.90
2019-03-19T07:37:41.754Z,12.20
2019-03-19T07:40:11.491Z,11.60
2019-03-19T07:42:40.751Z,11.60
2019-03-19T07:45:12.647Z,12.60
2019-03-19T07:47:41.948Z,13.30
2019-03-19T07:50:12.885Z,12.90
2019-03-19T07:52:42.196Z,13.00
2019-03-19T07:55:11.528Z,13.50
2019-03-19T07:57:40.798Z,14.30
2019-03-19T08:00:11.719Z,15.20
2019-03-19T08:02:40.998Z,15.50
2019-03-19T08:05:10.434Z,16.20
2019-03-19T08:07:39.801Z,16.20
2019-03-19T08:10:09.917Z,16.40
2019-03-19T08:12:39.188Z,15.50
2019-03-19T08:15:10.464Z,15.40
2019-03-19T08:17:39.758Z,15.70
2019-03-19T08:20:10.069Z,15.30
2019-03-19T08:22:39.353Z,15.50
2019-03-19T08:25:08.970Z,15.70
2019-03-19T08:27:38.306Z,17.00
2019-03-19T08:30:10.123Z,17.50
2019-03-19T08:32:39.447Z,17.40
2019-03-19T08:35:08.863Z,17.00
2019-03-19T08:37:38.160Z,16.90
2019-03-19T08:40:08.949Z,17.40
2019-03-19T08:42:38.270Z,17.00
2019-03-19T08:45:09.103Z,17.90
2019-03-19T08:47:38.562Z,18.20
2019-03-19T08:50:09.745Z,18.50
2019-03-19T08:52:39.111Z,17.70
2019-03-19T08:55:08.408Z,19.20
2019-03-19T08:57:37.709Z,19.50
2019-03-19T09:00:09.294Z,19.90
2019-03-19T09:02:38.605Z,20.60
2019-03-19T09:05:08.695Z,19.60
2019-03-19T09:07:38.014Z,20.00
2019-03-19T09:10:08.023Z,20.10
2019-03-19T09:12:37.313Z,20.20
2019-03-19T09:15:08.058Z,19.40
2019-03-19T09:17:37.364Z,20.30
2019-03-19T09:20:08.582Z,21.10
2019-03-19T09:22:37.858Z,21.60
2019-03-19T09:25:07.208Z,20.40
2019-03-19T09:27:36.517Z,19.60
2019-03-19T09:30:06.800Z,19.70
2019-03-19T09:32:36.112Z,19.70
2019-03-19T09:35:05.699Z,19.00
2019-03-19T09:37:35.013Z,20.10
2019-03-19T09:40:05.006Z,20.60
2019-03-19T09:42:34.331Z,20.50
2019-03-19T09:45:04.250Z,20.50
2019-03-19T09:47:33.577Z,19.40
2019-03-19T09:50:02.896Z,20.20
2019-03-19T09:52:32.183Z,21.40
2019-03-19T09:55:01.468Z,20.90
2019-03-19T09:57:30.765Z,21.00
2019-03-19T10:00:00.165Z,21.00
2019-03-19T10:02:29.773Z,20.90
2019-03-19T10:04:59.053Z,20.90
2019-03-19T10:07:28.333Z,21.90
2019-03-19T10:09:57.653Z,23.20
2019-03-19T10:12:26.912Z,23.50
2019-03-19T10:14:56.219Z,22.60
2019-03-19T10:17:25.526Z,21.80
2019-03-19T10:19:54.839Z,20.10
2019-03-19T10:22:24.119Z,19.70
2019-03-19T10:24:53.430Z,20.00
2019-03-19T10:27:22.785Z,18.20
2019-03-19T10:29:52.088Z,16.40
2019-03-19T10:32:21.378Z,15.70
2019-03-19T10:34:50.765Z,16.80
2019-03-19T10:37:20.507Z,18.40
2019-03-19T10:39:49.790Z,20.40
2019-03-19T10:42:19.086Z,21.80
2019-03-19T10:44:48.436Z,23.50
2019-03-19T10:47:17.722Z,24.30
2019-03-19T10:49:47.002Z,24.50
2019-03-19T10:52:16.310Z,24.60
2019-03-19T10:54:45.590Z,24.90
2019-03-19T10:57:14.878Z,24.00
2019-03-19T10:59:49.182Z,23.30
2019-03-19T11:02:15.177Z,23.50
2019-03-19T11:04:44.436Z,24.00
2019-03-19T11:07:15.280Z,24.50
2019-03-19T11:09:44.813Z,24.40
2019-03-19T11:12:14.115Z,23.00
2019-03-19T11:14:43.399Z,23.40
2019-03-19T11:17:12.710Z,23.70
2019-03-19T11:19:42.059Z,23.50
2019-03-19T11:22:11.448Z,23.40
2019-03-19T11:24:40.734Z,24.00
2019-03-19T11:27:10.090Z,23.10
2019-03-19T11:29:39.392Z,23.30
2019-03-19T11:32:08.729Z,24.60
2019-03-19T11:34:38.022Z,25.00
2019-03-19T11:37:07.390Z,24.60
2019-03-19T11:39:36.662Z,23.50
2019-03-19T11:42:05.963Z,23.40
2019-03-19T11:44:35.245Z,23.40
2019-03-19T11:47:04.756Z,23.40
2019-03-19T11:49:34.040Z,21.90
2019-03-19T11:52:03.350Z,22.10
2019-03-19T11:54:32.629Z,22.30
2019-03-19T11:57:02.002Z,21.90
2019-03-19T11:59:31.303Z,21.40
2019-03-19T12:02:00.609Z,21.70
2019-03-19T12:04:29.985Z,21.60
2019-03-19T12:06:59.286Z,20.70
2019-03-19T12:09:28.577Z,20.60
2019-03-19T12:11:57.853Z,20.60
2019-03-19T12:14:27.127Z,19.40
2019-03-19T12:16:56.410Z,19.10
2019-03-19T12:19:25.692Z,18.50
2019-03-19T12:21:54.960Z,17.70
2019-03-19T12:24:24.293Z,17.50
2019-03-19T12:26:53.606Z,18.30
2019-03-19T12:29:22.979Z,19.30
2019-03-19T12:31:52.278Z,20.30
2019-03-19T12:34:21.570Z,21.30
2019-03-19T12:36:50.844Z,21.70
2019-03-19T12:39:20.129Z,21.80
2019-03-19T12:41:49.416Z,21.40
2019-03-19T12:44:18.846Z,21.10
2019-03-19T12:46:48.141Z,21.30
2019-03-19T12:49:17.421Z,20.90
2019-03-19T12:51:46.792Z,21.00
2019-03-19T12:54:16.137Z,21.70
2019-03-19T12:56:45.495Z,22.20
2019-03-19T12:59:20.122Z,22.40
2019-03-19T13:01:45.861Z,21.80
2019-03-19T13:04:15.250Z,20.80
2019-03-19T13:06:44.563Z,20.90
2019-03-19T13:09:13.869Z,21.30
2019-03-19T13:11:43.162Z,20.60
2019-03-19T13:14:12.457Z,19.30
2019-03-19T13:16:42.916Z,18.60
2019-03-19T13:19:12.367Z,17.90
2019-03-19T13:21:41.652Z,18.70
2019-03-19T13:24:10.968Z,19.50
2019-03-19T13:26:40.259Z,20.10
2019-03-19T13:29:09.577Z,20.60
2019-03-19T13:31:38.858Z,21.40
2019-03-19T13:34:08.142Z,21.10
2019-03-19T13:36:37.526Z,21.00
2019-03-19T13:39:08.934Z,20.80
2019-03-19T13:41:38.211Z,20.50
2019-03-19T13:44:07.497Z,20.00
2019-03-19T13:46:36.865Z,19.10
2019-03-19T13:49:06.130Z,17.90
2019-03-19T13:51:35.453Z,18.20
2019-03-19T13:54:04.731Z,18.80
2019-03-19T13:56:34.029Z,19.00
2019-03-19T13:59:03.300Z,19.20
2019-03-19T14:01:32.569Z,19.10
2019-03-19T14:04:01.860Z,18.80
2019-03-19T14:06:31.120Z,18.50
2019-03-19T14:09:00.404Z,18.30
2019-03-19T14:11:29.694Z,18.40
2019-03-19T14:13:58.981Z,18.30
2019-03-19T14:16:28.281Z,18.00
2019-03-19T14:18:57.565Z,18.30
2019-03-19T14:21:26.829Z,18.40
2019-03-19T14:23:56.132Z,17.90
2019-03-19T14:26:25.404Z,18.00
2019-03-19T14:28:54.708Z,18.00
2019-03-19T14:31:24.613Z,17.30
2019-03-19T14:33:53.891Z,16.70
2019-03-19T14:36:23.157Z,16.10
2019-03-19T14:38:52.488Z,15.40
2019-03-19T14:41:21.769Z,15.00
2019-03-19T14:43:51.069Z,14.40
2019-03-19T14:46:20.326Z,14.20
2019-03-19T14:48:49.620Z,14.00
2019-03-19T14:51:18.891Z,14.00
2019-03-19T14:53:48.242Z,14.00
2019-03-19T14:56:17.573Z,14.10
2019-03-19T14:58:46.877Z,14.00
2019-03-19T15:01:19.657Z,13.90
2019-03-19T15:03:47.230Z,13.90
2019-03-19T15:06:16.528Z,14.00
2019-03-19T15:08:45.826Z,13.70
2019-03-19T15:11:15.101Z,13.70
2019-03-19T15:13:44.385Z,13.60
2019-03-19T15:16:13.685Z,13.60
2019-03-19T15:18:42.985Z,13.40
2019-03-19T15:21:12.248Z,13.30
2019-03-19T15:23:42.052Z,13.20
2019-03-19T15:26:11.317Z,13.20
2019-03-19T15:28:40.585Z,13.10
2019-03-19T15:31:09.905Z,13.00
2019-03-19T15:33:39.199Z,13.10
2019-03-19T15:36:08.487Z,13.10
2019-03-19T15:38:37.739Z,13.30
2019-03-19T15:41:07.029Z,13.30
2019-03-19T15:43:36.333Z,13.30
2019-03-19T15:46:05.616Z,13.30
2019-03-19T15:48:35.185Z,13.10
2019-03-19T15:51:04.446Z,13.10
2019-03-19T15:53:33.727Z,12.90
2019-03-19T15:56:03.015Z,12.70
2019-03-19T15:58:32.313Z,12.60
2019-03-19T16:01:01.594Z,12.40
2019-03-19T16:03:30.888Z,12.30
2019-03-19T16:06:00.236Z,12.20
2019-03-19T16:08:29.536Z,12.10
2019-03-19T16:10:58.866Z,12.00
2019-03-19T16:13:28.140Z,12.00
2019-03-19T16:15:57.405Z,12.00
2019-03-19T16:18:27.620Z,12.10
2019-03-19T16:20:57.008Z,12.00
2019-03-19T16:23:26.294Z,12.00
2019-03-19T16:25:55.557Z,11.90
2019-03-19T16:28:24.868Z,11.80
2019-03-19T16:30:54.121Z,11.60
2019-03-19T16:33:23.475Z,11.60
2019-03-19T16:35:52.818Z,11.40
2019-03-19T16:38:22.072Z,11.30
2019-03-19T16:40:52.621Z,11.30
2019-03-19T16:43:21.916Z,11.10
2019-03-19T16:45:51.213Z,11.10
2019-03-19T16:48:20.469Z,11.00
2019-03-19T16:50:49.766Z,10.90
2019-03-19T16:53:19.038Z,10.90
2019-03-19T16:55:48.341Z,10.80
2019-03-19T16:58:17.613Z,10.80
2019-03-19T17:00:46.904Z,10.70
2019-03-19T17:03:16.185Z,10.60
2019-03-19T17:05:45.469Z,10.50
2019-03-19T17:08:14.821Z,10.40
2019-03-19T17:10:44.100Z,10.30
2019-03-19T17:13:13.365Z,10.10
2019-03-19T17:15:42.673Z,10.00
2019-03-19T17:18:11.928Z,10.00
2019-03-19T17:20:41.194Z,9.90
2019-03-19T17:23:10.473Z,9.80
2019-03-19T17:25:39.761Z,9.70
2019-03-19T17:28:09.044Z,9.60
2019-03-19T17:30:38.311Z,9.40
2019-03-19T17:33:07.604Z,9.40
2019-03-19T17:35:36.957Z,9.20
2019-03-19T17:38:06.256Z,9.10
2019-03-19T17:40:41.225Z,9.00
2019-03-19T17:43:06.718Z,8.90
2019-03-19T17:45:36.041Z,8.80
2019-03-19T17:48:15.446Z,8.70
2019-03-19T17:50:36.507Z,8.60
2019-03-19T17:53:05.822Z,8.60
2019-03-19T17:55:35.086Z,8.40
2019-03-19T17:58:04.473Z,8.40
2019-03-19T18:00:34.084Z,8.40
2019-03-19T18:03:03.364Z,8.40
2019-03-19T18:05:32.636Z,8.30
2019-03-19T18:08:02.129Z,8.20
2019-03-19T18:10:31.380Z,8.10
2019-03-19T18:13:00.656Z,8.00
2019-03-19T18:15:29.910Z,8.00
2019-03-19T18:17:59.309Z,7.90
2019-03-19T18:20:28.830Z,7.90
2019-03-19T18:22:58.117Z,7.80
2019-03-19T18:25:27.504Z,7.80
2019-03-19T18:27:56.945Z,7.70
2019-03-19T18:30:27.429Z,7.60
2019-03-19T18:32:57.109Z,7.60
2019-03-19T18:35:26.542Z,7.60
2019-03-19T18:37:55.796Z,7.50
2019-03-19T18:40:25.086Z,7.40
2019-03-19T18:42:54.358Z,7.50
2019-03-19T18:45:23.744Z,7.50
2019-03-19T18:47:53.019Z,7.40
2019-03-19T18:50:22.379Z,7.50
2019-03-19T18:52:51.753Z,7.50
2019-03-19T18:55:21.056Z,7.80
2019-03-19T18:57:50.442Z,7.90
2019-03-19T19:00:19.789Z,7.80
2019-03-19T19:02:50.788Z,7.70
2019-03-19T19:05:20.332Z,7.60
2019-03-19T19:07:49.620Z,7.60
2019-03-19T19:10:21.168Z,7.50
2019-03-19T19:12:50.236Z,7.50
2019-03-19T19:15:19.582Z,7.30
2019-03-19T19:17:48.890Z,7.20
2019-03-19T19:20:18.676Z,7.10
2019-03-19T19:22:48.037Z,7.00
2019-03-19T19:25:17.339Z,7.00
2019-03-19T19:27:46.708Z,7.10
2019-03-19T19:30:17.918Z,7.10
2019-03-19T19:32:47.429Z,7.00
2019-03-19T19:35:16.800Z,7.00
2019-03-19T19:37:46.112Z,7.00
2019-03-19T19:40:16.666Z,7.00
2019-03-19T19:42:46.199Z,7.00
2019-03-19T19:45:15.602Z,6.90
2019-03-19T19:47:44.888Z,6.70
2019-03-19T19:50:14.707Z,6.70
2019-03-19T19:52:44.073Z,6.60
2019-03-19T19:55:13.489Z,6.50
2019-03-19T19:57:42.774Z,6.40
2019-03-19T20:00:15.235Z,6.40
2019-03-19T20:02:44.686Z,6.50
2019-03-19T20:05:13.972Z,6.50
2019-03-19T20:07:43.389Z,6.60
2019-03-19T20:10:14.928Z,6.50
2019-03-19T20:12:44.216Z,6.60
2019-03-19T20:15:13.524Z,6.60
2019-03-19T20:17:42.880Z,6.60
2019-03-19T20:20:14.468Z,6.60
2019-03-19T20:22:44.801Z,6.50
2019-03-19T20:25:14.437Z,6.50
2019-03-19T20:27:43.692Z,6.40
2019-03-19T20:30:17.817Z,6.40
2019-03-19T20:32:47.189Z,6.40
2019-03-19T20:35:16.615Z,6.50
2019-03-19T20:37:45.884Z,6.60
2019-03-19T20:40:15.200Z,6.60
2019-03-19T20:42:44.478Z,6.60
2019-03-19T20:45:13.788Z,6.50
2019-03-19T20:47:43.089Z,6.30
2019-03-19T20:50:21.026Z,6.20
2019-03-19T20:52:50.308Z,6.20
2019-03-19T20:55:19.658Z,6.30
2019-03-19T20:57:49.043Z,6.20
2019-03-19T21:00:18.615Z,6.10
2019-03-19T21:02:47.984Z,6.10
2019-03-19T21:05:17.361Z,6.20
2019-03-19T21:07:46.744Z,6.20
2019-03-19T21:10:17.455Z,6.10
2019-03-19T21:12:46.742Z,6.10
2019-03-19T21:15:18.096Z,6.10
2019-03-19T21:17:47.642Z,6.10
2019-03-19T21:20:17.143Z,6.10
2019-03-19T21:22:46.527Z,6.20
2019-03-19T21:25:16.166Z,6.30
2019-03-19T21:27:46.054Z,6.40
2019-03-19T21:30:15.911Z,6.50
2019-03-19T21:32:46.097Z,6.50
2019-03-19T21:35:16.913Z,6.40
2019-03-19T21:37:46.553Z,6.30
2019-03-19T21:40:16.167Z,6.20
2019-03-19T21:42:46.082Z,6.20
2019-03-19T21:45:15.887Z,6.20
2019-03-19T21:47:45.176Z,6.30
2019-03-19T21:50:14.957Z,6.30
2019-03-19T21:52:44.220Z,6.30
2019-03-19T21:55:16.926Z,6.30
2019-03-19T21:57:46.722Z,6.40
2019-03-19T22:00:17.356Z,6.50
2019-03-19T22:02:49.799Z,6.60
2019-03-19T22:05:19.201Z,6.50
2019-03-19T22:07:48.473Z,6.50
2019-03-19T22:10:17.764Z,6.40
2019-03-19T22:12:49.118Z,6.30
2019-03-19T22:15:18.376Z,6.20
2019-03-19T22:17:47.682Z,6.10
2019-03-19T22:20:17.048Z,6.00
2019-03-19T22:22:46.394Z,5.90
2019-03-19T22:25:15.776Z,5.90
2019-03-19T22:27:45.140Z,5.90
2019-03-19T22:30:15.694Z,5.90
2019-03-19T22:32:44.954Z,5.80
2019-03-19T22:35:14.339Z,5.60
2019-03-19T22:37:43.621Z,5.60
2019-03-19T22:40:14.233Z,5.60
2019-03-19T22:42:43.484Z,5.50
2019-03-19T22:45:13.837Z,5.40
2019-03-19T22:47:43.309Z,5.40
2019-03-19T22:50:13.342Z,5.30
2019-03-19T22:52:42.668Z,5.30
2019-03-19T22:55:12.029Z,5.20
2019-03-19T22:57:41.320Z,5.20
2019-03-19T23:00:18.712Z,5.10
2019-03-19T23:02:48.018Z,5.10
2019-03-19T23:05:17.337Z,5.10
2019-03-19T23:07:46.696Z,5.10
2019-03-19T23:10:15.978Z,5.10
2019-03-19T23:12:45.291Z,5.10
2019-03-19T23:15:14.873Z,5.10
2019-03-19T23:22:41.799Z,4.80
2019-03-19T23:25:11.911Z,4.80
2019-03-19T23:27:41.213Z,4.70
2019-03-19T23:30:11.027Z,4.70
2019-03-19T23:32:40.303Z,4.60
2019-03-19T23:35:09.614Z,4.60
2019-03-19T23:37:38.892Z,4.60
2019-03-19T23:40:08.593Z,4.60
2019-03-19T23:42:37.870Z,4.50
2019-03-19T23:45:07.552Z,4.50
2019-03-19T23:47:36.824Z,4.50
2019-03-19T23:50:07.643Z,4.40
2019-03-19T23:52:36.960Z,4.40
2019-03-19T23:55:06.758Z,4.30
2019-03-19T23:57:36.023Z,4.20
